sensor_id;sensor_type;location;lat;lon;timestamp;P1;durP1;ratioP1;P2;durP2;ratioP2
77078;SDS011;66004;55.096;38.760;2023-04-24T00:00:06;12.07;;;5.80;;
77078;SDS011;66004;55.096;38.760;2023-04-24T00:02:36;11.70;;;6.30;;
77078;SDS011;66004;55.096;38.760;2023-04-24T00:05:05;14.55;;;6.25;;
77078;SDS011;66004;55.096;38.760;2023-04-24T00:07:31;8.63;;;5.22;;
77078;SDS011;66004;55.096;38.760;2023-04-24T00:12:23;17.52;;;6.72;;
77078;SDS011;66004;55.096;38.760;2023-04-24T00:17:14;15.43;;;6.82;;
77078;SDS011;66004;55.096;38.760;2023-04-24T00:22:04;13.20;;;6.63;;
77078;SDS011;66004;55.096;38.760;2023-04-24T00:26:55;18.38;;;6.68;;
77078;SDS011;66004;55.096;38.760;2023-04-24T00:31:46;12.48;;;6.97;;
77078;SDS011;66004;55.096;38.760;2023-04-24T00:34:12;17.02;;;7.82;;
77078;SDS011;66004;55.096;38.760;2023-04-24T00:36:37;18.98;;;7.10;;
77078;SDS011;66004;55.096;38.760;2023-04-24T00:41:28;15.88;;;7.38;;
77078;SDS011;66004;55.096;38.760;2023-04-24T00:43:54;14.88;;;7.07;;
77078;SDS011;66004;55.096;38.760;2023-04-24T00:48:45;16.15;;;7.30;;
77078;SDS011;66004;55.096;38.760;2023-04-24T00:51:11;17.20;;;6.68;;
77078;SDS011;66004;55.096;38.760;2023-04-24T00:56:02;19.85;;;8.05;;
77078;SDS011;66004;55.096;38.760;2023-04-24T00:58:29;16.92;;;7.68;;
77078;SDS011;66004;55.096;38.760;2023-04-24T01:00:56;11.82;;;6.57;;
77078;SDS011;66004;55.096;38.760;2023-04-24T01:03:24;16.85;;;6.63;;
77078;SDS011;66004;55.096;38.760;2023-04-24T01:05:51;12.15;;;6.93;;
77078;SDS011;66004;55.096;38.760;2023-04-24T01:08:19;18.73;;;6.65;;
77078;SDS011;66004;55.096;38.760;2023-04-24T01:10:45;23.60;;;8.27;;
77078;SDS011;66004;55.096;38.760;2023-04-24T01:13:12;20.05;;;8.40;;
77078;SDS011;66004;55.096;38.760;2023-04-24T01:18:04;25.45;;;10.00;;
77078;SDS011;66004;55.096;38.760;2023-04-24T01:20:31;25.65;;;9.75;;
77078;SDS011;66004;55.096;38.760;2023-04-24T01:22:58;18.25;;;9.02;;
77078;SDS011;66004;55.096;38.760;2023-04-24T01:27:50;21.70;;;9.00;;
77078;SDS011;66004;55.096;38.760;2023-04-24T01:32:42;18.25;;;7.10;;
77078;SDS011;66004;55.096;38.760;2023-04-24T01:35:09;28.17;;;8.52;;
77078;SDS011;66004;55.096;38.760;2023-04-24T01:40:02;15.20;;;7.22;;
77078;SDS011;66004;55.096;38.760;2023-04-24T01:42:29;12.57;;;6.80;;
77078;SDS011;66004;55.096;38.760;2023-04-24T01:47:21;11.73;;;6.45;;
77078;SDS011;66004;55.096;38.760;2023-04-24T01:52:13;11.18;;;6.80;;
77078;SDS011;66004;55.096;38.760;2023-04-24T01:57:04;21.83;;;7.10;;
77078;SDS011;66004;55.096;38.760;2023-04-24T01:59:30;15.40;;;6.95;;
77078;SDS011;66004;55.096;38.760;2023-04-24T02:01:58;11.93;;;6.25;;
77078;SDS011;66004;55.096;38.760;2023-04-24T02:06:49;13.52;;;6.13;;
77078;SDS011;66004;55.096;38.760;2023-04-24T02:11:40;11.95;;;5.75;;
77078;SDS011;66004;55.096;38.760;2023-04-24T02:16:30;13.02;;;6.13;;
77078;SDS011;66004;55.096;38.760;2023-04-24T02:18:57;12.93;;;5.65;;
77078;SDS011;66004;55.096;38.760;2023-04-24T02:23:48;14.02;;;5.95;;
77078;SDS011;66004;55.096;38.760;2023-04-24T02:28:40;12.02;;;5.50;;
77078;SDS011;66004;55.096;38.760;2023-04-24T02:33:31;17.35;;;6.57;;
77078;SDS011;66004;55.096;38.760;2023-04-24T02:38:22;17.25;;;5.93;;
77078;SDS011;66004;55.096;38.760;2023-04-24T02:43:13;15.63;;;6.10;;
77078;SDS011;66004;55.096;38.760;2023-04-24T02:48:04;20.50;;;6.50;;
77078;SDS011;66004;55.096;38.760;2023-04-24T02:52:25;20.27;;;7.13;;
77078;SDS011;66004;55.096;38.760;2023-04-24T02:57:16;22.38;;;6.82;;
77078;SDS011;66004;55.096;38.760;2023-04-24T03:02:07;13.88;;;6.72;;
77078;SDS011;66004;55.096;38.760;2023-04-24T03:06:58;18.65;;;9.30;;
77078;SDS011;66004;55.096;38.760;2023-04-24T03:09:24;25.70;;;12.82;;
77078;SDS011;66004;55.096;38.760;2023-04-24T03:14:15;27.65;;;12.63;;
77078;SDS011;66004;55.096;38.760;2023-04-24T03:16:41;35.00;;;13.25;;
77078;SDS011;66004;55.096;38.760;2023-04-24T03:21:32;32.40;;;14.03;;
77078;SDS011;66004;55.096;38.760;2023-04-24T03:23:58;25.77;;;12.05;;
77078;SDS011;66004;55.096;38.760;2023-04-24T03:28:49;19.35;;;9.20;;
77078;SDS011;66004;55.096;38.760;2023-04-24T03:31:15;20.10;;;9.50;;
77078;SDS011;66004;55.096;38.760;2023-04-24T03:33:41;20.92;;;9.70;;
77078;SDS011;66004;55.096;38.760;2023-04-24T03:38:32;20.90;;;8.57;;
77078;SDS011;66004;55.096;38.760;2023-04-24T03:43:23;18.00;;;9.18;;
77078;SDS011;66004;55.096;38.760;2023-04-24T03:48:14;21.08;;;8.75;;
77078;SDS011;66004;55.096;38.760;2023-04-24T03:53:05;31.15;;;8.35;;
77078;SDS011;66004;55.096;38.760;2023-04-24T03:57:56;24.00;;;10.50;;
77078;SDS011;66004;55.096;38.760;2023-04-24T04:02:47;65.95;;;11.73;;
77078;SDS011;66004;55.096;38.760;2023-04-24T04:07:38;43.83;;;10.93;;
77078;SDS011;66004;55.096;38.760;2023-04-24T04:12:29;36.05;;;9.15;;
77078;SDS011;66004;55.096;38.760;2023-04-24T04:17:20;80.72;;;13.20;;
77078;SDS011;66004;55.096;38.760;2023-04-24T04:19:47;66.00;;;12.52;;
77078;SDS011;66004;55.096;38.760;2023-04-24T04:24:37;16.70;;;6.13;;
77078;SDS011;66004;55.096;38.760;2023-04-24T04:27:05;20.77;;;7.25;;
77078;SDS011;66004;55.096;38.760;2023-04-24T04:29:31;23.40;;;7.53;;
77078;SDS011;66004;55.096;38.760;2023-04-24T04:31:58;17.60;;;7.25;;
77078;SDS011;66004;55.096;38.760;2023-04-24T04:34:23;40.58;;;11.50;;
77078;SDS011;66004;55.096;38.760;2023-04-24T04:36:49;18.48;;;6.65;;
77078;SDS011;66004;55.096;38.760;2023-04-24T04:39:15;33.22;;;8.95;;
77078;SDS011;66004;55.096;38.760;2023-04-24T04:41:41;34.97;;;9.85;;
77078;SDS011;66004;55.096;38.760;2023-04-24T04:44:07;42.83;;;11.02;;
77078;SDS011;66004;55.096;38.760;2023-04-24T04:46:33;35.58;;;8.45;;
77078;SDS011;66004;55.096;38.760;2023-04-24T04:48:59;44.17;;;10.40;;
77078;SDS011;66004;55.096;38.760;2023-04-24T04:51:26;59.78;;;11.55;;
77078;SDS011;66004;55.096;38.760;2023-04-24T04:53:52;21.25;;;6.68;;
77078;SDS011;66004;55.096;38.760;2023-04-24T04:56:18;25.35;;;6.63;;
77078;SDS011;66004;55.096;38.760;2023-04-24T04:58:44;17.95;;;7.00;;
77078;SDS011;66004;55.096;38.760;2023-04-24T05:01:10;17.10;;;6.68;;
77078;SDS011;66004;55.096;38.760;2023-04-24T05:03:35;20.63;;;7.07;;
77078;SDS011;66004;55.096;38.760;2023-04-24T05:06:01;23.77;;;6.88;;
77078;SDS011;66004;55.096;38.760;2023-04-24T05:08:27;18.70;;;7.43;;
77078;SDS011;66004;55.096;38.760;2023-04-24T05:10:53;25.85;;;7.55;;
77078;SDS011;66004;55.096;38.760;2023-04-24T05:13:19;17.70;;;6.72;;
77078;SDS011;66004;55.096;38.760;2023-04-24T05:15:45;18.48;;;7.38;;
77078;SDS011;66004;55.096;38.760;2023-04-24T05:18:10;20.05;;;8.07;;
77078;SDS011;66004;55.096;38.760;2023-04-24T05:20:36;17.98;;;7.18;;
77078;SDS011;66004;55.096;38.760;2023-04-24T05:23:01;19.65;;;8.57;;
77078;SDS011;66004;55.096;38.760;2023-04-24T05:25:27;17.67;;;7.38;;
77078;SDS011;66004;55.096;38.760;2023-04-24T05:27:52;15.75;;;8.38;;
77078;SDS011;66004;55.096;38.760;2023-04-24T05:30:18;15.77;;;6.68;;
77078;SDS011;66004;55.096;38.760;2023-04-24T05:32:44;18.80;;;7.88;;
77078;SDS011;66004;55.096;38.760;2023-04-24T05:35:11;17.45;;;6.93;;
77078;SDS011;66004;55.096;38.760;2023-04-24T05:37:36;15.85;;;7.38;;
77078;SDS011;66004;55.096;38.760;2023-04-24T05:40:02;27.85;;;7.57;;
77078;SDS011;66004;55.096;38.760;2023-04-24T05:42:30;17.48;;;6.82;;
77078;SDS011;66004;55.096;38.760;2023-04-24T05:44:56;20.02;;;6.85;;
77078;SDS011;66004;55.096;38.760;2023-04-24T05:47:21;31.27;;;8.77;;
77078;SDS011;66004;55.096;38.760;2023-04-24T05:49:47;47.55;;;9.35;;
77078;SDS011;66004;55.096;38.760;2023-04-24T05:52:13;24.52;;;6.40;;
77078;SDS011;66004;55.096;38.760;2023-04-24T05:54:38;34.20;;;6.82;;
77078;SDS011;66004;55.096;38.760;2023-04-24T05:57:04;15.77;;;6.47;;
77078;SDS011;66004;55.096;38.760;2023-04-24T05:59:41;17.13;;;6.00;;
77078;SDS011;66004;55.096;38.760;2023-04-24T06:02:07;15.32;;;5.93;;
77078;SDS011;66004;55.096;38.760;2023-04-24T06:04:32;20.40;;;6.18;;
77078;SDS011;66004;55.096;38.760;2023-04-24T06:06:58;15.90;;;5.57;;
77078;SDS011;66004;55.096;38.760;2023-04-24T06:09:24;13.77;;;6.28;;
77078;SDS011;66004;55.096;38.760;2023-04-24T06:11:50;17.40;;;6.40;;
77078;SDS011;66004;55.096;38.760;2023-04-24T06:14:19;19.15;;;5.93;;
77078;SDS011;66004;55.096;38.760;2023-04-24T06:16:46;14.02;;;5.97;;
77078;SDS011;66004;55.096;38.760;2023-04-24T06:19:11;28.75;;;7.07;;
77078;SDS011;66004;55.096;38.760;2023-04-24T06:21:37;26.42;;;6.47;;
77078;SDS011;66004;55.096;38.760;2023-04-24T06:24:02;16.17;;;5.95;;
77078;SDS011;66004;55.096;38.760;2023-04-24T06:26:29;14.82;;;6.63;;
77078;SDS011;66004;55.096;38.760;2023-04-24T06:28:55;15.60;;;5.60;;
77078;SDS011;66004;55.096;38.760;2023-04-24T06:31:20;20.60;;;5.28;;
77078;SDS011;66004;55.096;38.760;2023-04-24T06:33:46;15.25;;;6.10;;
77078;SDS011;66004;55.096;38.760;2023-04-24T06:36:12;17.98;;;4.88;;
77078;SDS011;66004;55.096;38.760;2023-04-24T06:38:38;24.27;;;5.07;;
77078;SDS011;66004;55.096;38.760;2023-04-24T06:41:03;42.53;;;6.47;;
77078;SDS011;66004;55.096;38.760;2023-04-24T06:43:30;81.55;;;11.07;;
77078;SDS011;66004;55.096;38.760;2023-04-24T06:45:57;27.30;;;7.35;;
77078;SDS011;66004;55.096;38.760;2023-04-24T06:48:23;16.30;;;4.18;;
77078;SDS011;66004;55.096;38.760;2023-04-24T06:50:50;160.20;;;9.75;;
77078;SDS011;66004;55.096;38.760;2023-04-24T06:53:16;15.43;;;3.72;;
77078;SDS011;66004;55.096;38.760;2023-04-24T06:55:41;14.25;;;3.83;;
77078;SDS011;66004;55.096;38.760;2023-04-24T06:58:08;26.45;;;3.88;;
77078;SDS011;66004;55.096;38.760;2023-04-24T07:00:34;7.50;;;3.30;;
77078;SDS011;66004;55.096;38.760;2023-04-24T07:03:00;22.92;;;4.03;;
77078;SDS011;66004;55.096;38.760;2023-04-24T07:05:25;10.68;;;3.17;;
77078;SDS011;66004;55.096;38.760;2023-04-24T07:07:51;14.85;;;3.20;;
77078;SDS011;66004;55.096;38.760;2023-04-24T07:10:17;13.88;;;3.20;;
77078;SDS011;66004;55.096;38.760;2023-04-24T07:12:43;15.07;;;3.28;;
77078;SDS011;66004;55.096;38.760;2023-04-24T07:15:08;15.98;;;2.63;;
77078;SDS011;66004;55.096;38.760;2023-04-24T07:17:34;8.98;;;2.15;;
77078;SDS011;66004;55.096;38.760;2023-04-24T07:20:00;5.00;;;2.25;;
77078;SDS011;66004;55.096;38.760;2023-04-24T07:22:26;10.32;;;3.03;;
77078;SDS011;66004;55.096;38.760;2023-04-24T07:24:51;7.57;;;2.95;;
77078;SDS011;66004;55.096;38.760;2023-04-24T07:27:17;14.40;;;3.60;;
77078;SDS011;66004;55.096;38.760;2023-04-24T07:29:42;69.57;;;9.57;;
77078;SDS011;66004;55.096;38.760;2023-04-24T07:32:08;65.45;;;10.27;;
77078;SDS011;66004;55.096;38.760;2023-04-24T07:34:34;10.35;;;3.15;;
77078;SDS011;66004;55.096;38.760;2023-04-24T07:37:00;13.32;;;2.80;;
77078;SDS011;66004;55.096;38.760;2023-04-24T07:39:25;8.18;;;2.70;;
77078;SDS011;66004;55.096;38.760;2023-04-24T07:41:51;9.98;;;2.50;;
77078;SDS011;66004;55.096;38.760;2023-04-24T07:44:17;10.80;;;3.30;;
77078;SDS011;66004;55.096;38.760;2023-04-24T07:46:42;16.30;;;4.13;;
77078;SDS011;66004;55.096;38.760;2023-04-24T07:49:08;12.77;;;3.03;;
77078;SDS011;66004;55.096;38.760;2023-04-24T07:51:33;12.05;;;3.20;;
77078;SDS011;66004;55.096;38.760;2023-04-24T07:54:03;11.98;;;2.80;;
77078;SDS011;66004;55.096;38.760;2023-04-24T07:56:31;15.10;;;2.65;;
77078;SDS011;66004;55.096;38.760;2023-04-24T07:58:58;14.90;;;2.67;;
77078;SDS011;66004;55.096;38.760;2023-04-24T08:01:23;12.82;;;1.65;;
77078;SDS011;66004;55.096;38.760;2023-04-24T08:03:49;6.88;;;1.60;;
77078;SDS011;66004;55.096;38.760;2023-04-24T08:06:14;8.05;;;2.10;;
77078;SDS011;66004;55.096;38.760;2023-04-24T08:08:40;9.80;;;2.03;;
77078;SDS011;66004;55.096;38.760;2023-04-24T08:11:05;65.25;;;9.70;;
77078;SDS011;66004;55.096;38.760;2023-04-24T08:13:31;63.35;;;6.95;;
77078;SDS011;66004;55.096;38.760;2023-04-24T08:15:56;14.20;;;2.63;;
77078;SDS011;66004;55.096;38.760;2023-04-24T08:18:22;8.50;;;1.92;;
77078;SDS011;66004;55.096;38.760;2023-04-24T08:20:48;8.48;;;1.70;;
77078;SDS011;66004;55.096;38.760;2023-04-24T08:23:13;15.77;;;2.90;;
77078;SDS011;66004;55.096;38.760;2023-04-24T08:25:39;6.93;;;1.90;;
77078;SDS011;66004;55.096;38.760;2023-04-24T08:28:05;17.58;;;2.50;;
77078;SDS011;66004;55.096;38.760;2023-04-24T08:30:33;10.45;;;2.67;;
77078;SDS011;66004;55.096;38.760;2023-04-24T08:32:59;7.60;;;2.17;;
77078;SDS011;66004;55.096;38.760;2023-04-24T08:35:24;28.75;;;2.70;;
77078;SDS011;66004;55.096;38.760;2023-04-24T08:37:51;37.42;;;3.47;;
77078;SDS011;66004;55.096;38.760;2023-04-24T08:40:18;9.68;;;1.83;;
77078;SDS011;66004;55.096;38.760;2023-04-24T08:42:52;7.20;;;2.00;;
77078;SDS011;66004;55.096;38.760;2023-04-24T08:45:19;9.07;;;2.25;;
77078;SDS011;66004;55.096;38.760;2023-04-24T08:47:45;5.65;;;2.55;;
77078;SDS011;66004;55.096;38.760;2023-04-24T08:52:25;9.43;;;2.28;;
77078;SDS011;66004;55.096;38.760;2023-04-24T08:54:51;3.72;;;2.50;;
77078;SDS011;66004;55.096;38.760;2023-04-24T08:57:19;8.50;;;2.60;;
77078;SDS011;66004;55.096;38.760;2023-04-24T08:59:44;15.75;;;2.85;;
77078;SDS011;66004;55.096;38.760;2023-04-24T09:02:11;7.38;;;2.85;;
77078;SDS011;66004;55.096;38.760;2023-04-24T09:04:38;5.20;;;2.33;;
77078;SDS011;66004;55.096;38.760;2023-04-24T09:07:06;8.90;;;2.75;;
77078;SDS011;66004;55.096;38.760;2023-04-24T09:09:32;6.32;;;2.45;;
77078;SDS011;66004;55.096;38.760;2023-04-24T09:11:58;12.40;;;2.60;;
77078;SDS011;66004;55.096;38.760;2023-04-24T09:14:24;10.98;;;2.80;;
77078;SDS011;66004;55.096;38.760;2023-04-24T09:16:50;25.10;;;2.90;;
77078;SDS011;66004;55.096;38.760;2023-04-24T09:19:16;10.38;;;2.50;;
77078;SDS011;66004;55.096;38.760;2023-04-24T09:21:41;3.47;;;2.22;;
77078;SDS011;66004;55.096;38.760;2023-04-24T09:24:15;7.95;;;2.33;;
77078;SDS011;66004;55.096;38.760;2023-04-24T09:26:47;31.05;;;3.05;;
77078;SDS011;66004;55.096;38.760;2023-04-24T09:29:14;6.75;;;2.13;;
77078;SDS011;66004;55.096;38.760;2023-04-24T09:31:42;13.25;;;2.38;;
77078;SDS011;66004;55.096;38.760;2023-04-24T09:34:08;6.53;;;2.35;;
77078;SDS011;66004;55.096;38.760;2023-04-24T09:36:34;19.20;;;2.92;;
77078;SDS011;66004;55.096;38.760;2023-04-24T09:39:03;13.95;;;3.22;;
77078;SDS011;66004;55.096;38.760;2023-04-24T09:44:19;15.07;;;3.90;;
77078;SDS011;66004;55.096;38.760;2023-04-24T09:46:49;29.55;;;7.00;;
77078;SDS011;66004;55.096;38.760;2023-04-24T09:49:16;13.13;;;2.97;;
77078;SDS011;66004;55.096;38.760;2023-04-24T09:51:47;20.42;;;3.20;;
77078;SDS011;66004;55.096;38.760;2023-04-24T09:54:17;13.18;;;3.70;;
77078;SDS011;66004;55.096;38.760;2023-04-24T09:56:46;11.75;;;3.60;;
77078;SDS011;66004;55.096;38.760;2023-04-24T09:59:13;21.75;;;3.45;;
77078;SDS011;66004;55.096;38.760;2023-04-24T10:01:40;23.00;;;3.35;;
77078;SDS011;66004;55.096;38.760;2023-04-24T10:04:28;12.15;;;2.70;;
77078;SDS011;66004;55.096;38.760;2023-04-24T10:06:54;33.83;;;3.72;;
77078;SDS011;66004;55.096;38.760;2023-04-24T10:09:21;13.55;;;3.10;;
77078;SDS011;66004;55.096;38.760;2023-04-24T10:11:49;15.35;;;4.30;;
77078;SDS011;66004;55.096;38.760;2023-04-24T10:14:21;30.27;;;4.78;;
77078;SDS011;66004;55.096;38.760;2023-04-24T10:16:48;9.15;;;2.40;;
77078;SDS011;66004;55.096;38.760;2023-04-24T10:19:15;23.83;;;3.65;;
77078;SDS011;66004;55.096;38.760;2023-04-24T10:21:45;13.48;;;3.15;;
77078;SDS011;66004;55.096;38.760;2023-04-24T10:24:14;7.63;;;2.90;;
77078;SDS011;66004;55.096;38.760;2023-04-24T10:26:40;6.20;;;2.83;;
77078;SDS011;66004;55.096;38.760;2023-04-24T10:29:07;5.70;;;2.42;;
77078;SDS011;66004;55.096;38.760;2023-04-24T10:31:37;8.15;;;2.55;;
77078;SDS011;66004;55.096;38.760;2023-04-24T10:34:04;4.82;;;2.47;;
77078;SDS011;66004;55.096;38.760;2023-04-24T10:36:32;10.43;;;3.08;;
77078;SDS011;66004;55.096;38.760;2023-04-24T10:38:59;9.07;;;2.80;;
77078;SDS011;66004;55.096;38.760;2023-04-24T10:41:27;12.05;;;3.05;;
77078;SDS011;66004;55.096;38.760;2023-04-24T10:44:08;8.10;;;3.00;;
77078;SDS011;66004;55.096;38.760;2023-04-24T10:46:37;12.63;;;2.83;;
77078;SDS011;66004;55.096;38.760;2023-04-24T10:49:07;4.55;;;2.40;;
77078;SDS011;66004;55.096;38.760;2023-04-24T10:51:52;18.70;;;3.10;;
77078;SDS011;66004;55.096;38.760;2023-04-24T10:54:41;6.78;;;2.38;;
77078;SDS011;66004;55.096;38.760;2023-04-24T10:59:51;10.05;;;2.75;;
77078;SDS011;66004;55.096;38.760;2023-04-24T11:05:04;12.88;;;4.28;;
77078;SDS011;66004;55.096;38.760;2023-04-24T11:07:57;9.50;;;2.85;;
77078;SDS011;66004;55.096;38.760;2023-04-24T11:10:33;8.40;;;2.72;;
77078;SDS011;66004;55.096;38.760;2023-04-24T11:13:02;12.30;;;2.90;;
77078;SDS011;66004;55.096;38.760;2023-04-24T11:15:28;11.45;;;2.83;;
77078;SDS011;66004;55.096;38.760;2023-04-24T11:17:55;5.72;;;2.50;;
77078;SDS011;66004;55.096;38.760;2023-04-24T11:20:22;22.50;;;3.20;;
77078;SDS011;66004;55.096;38.760;2023-04-24T11:22:48;9.15;;;2.45;;
77078;SDS011;66004;55.096;38.760;2023-04-24T11:25:19;10.65;;;2.92;;
77078;SDS011;66004;55.096;38.760;2023-04-24T11:27:47;5.38;;;2.83;;
77078;SDS011;66004;55.096;38.760;2023-04-24T11:30:16;18.75;;;3.33;;
77078;SDS011;66004;55.096;38.760;2023-04-24T11:32:46;12.30;;;2.55;;
77078;SDS011;66004;55.096;38.760;2023-04-24T11:37:45;11.32;;;2.90;;
77078;SDS011;66004;55.096;38.760;2023-04-24T11:40:12;9.15;;;2.63;;
77078;SDS011;66004;55.096;38.760;2023-04-24T11:42:41;4.95;;;2.55;;
77078;SDS011;66004;55.096;38.760;2023-04-24T11:45:09;5.07;;;2.42;;
77078;SDS011;66004;55.096;38.760;2023-04-24T11:47:41;8.25;;;3.03;;
77078;SDS011;66004;55.096;38.760;2023-04-24T11:50:09;8.52;;;2.40;;
77078;SDS011;66004;55.096;38.760;2023-04-24T11:52:37;16.20;;;3.20;;
77078;SDS011;66004;55.096;38.760;2023-04-24T11:55:05;15.95;;;3.05;;
77078;SDS011;66004;55.096;38.760;2023-04-24T11:57:32;10.43;;;2.83;;
77078;SDS011;66004;55.096;38.760;2023-04-24T12:00:02;19.58;;;3.45;;
77078;SDS011;66004;55.096;38.760;2023-04-24T12:02:30;16.65;;;3.20;;
77078;SDS011;66004;55.096;38.760;2023-04-24T12:04:55;11.20;;;2.67;;
77078;SDS011;66004;55.096;38.760;2023-04-24T12:07:22;7.40;;;2.40;;
77078;SDS011;66004;55.096;38.760;2023-04-24T12:09:54;17.52;;;3.88;;
77078;SDS011;66004;55.096;38.760;2023-04-24T12:12:24;40.95;;;4.38;;
77078;SDS011;66004;55.096;38.760;2023-04-24T12:19:52;14.13;;;2.75;;
77078;SDS011;66004;55.096;38.760;2023-04-24T12:22:26;15.68;;;2.97;;
77078;SDS011;66004;55.096;38.760;2023-04-24T12:24:55;18.67;;;3.25;;
77078;SDS011;66004;55.096;38.760;2023-04-24T12:27:22;13.98;;;3.40;;
77078;SDS011;66004;55.096;38.760;2023-04-24T12:29:56;15.52;;;2.72;;
77078;SDS011;66004;55.096;38.760;2023-04-24T12:32:23;7.55;;;2.90;;
77078;SDS011;66004;55.096;38.760;2023-04-24T12:34:50;15.25;;;3.75;;
77078;SDS011;66004;55.096;38.760;2023-04-24T12:37:16;11.20;;;2.72;;
77078;SDS011;66004;55.096;38.760;2023-04-24T12:42:50;10.55;;;2.40;;
77078;SDS011;66004;55.096;38.760;2023-04-24T12:45:17;8.23;;;3.05;;
77078;SDS011;66004;55.096;38.760;2023-04-24T12:47:44;6.05;;;2.60;;
77078;SDS011;66004;55.096;38.760;2023-04-24T12:50:10;12.88;;;2.78;;
77078;SDS011;66004;55.096;38.760;2023-04-24T12:52:37;9.52;;;2.50;;
77078;SDS011;66004;55.096;38.760;2023-04-24T12:55:04;10.20;;;2.30;;
77078;SDS011;66004;55.096;38.760;2023-04-24T12:57:33;10.07;;;2.58;;
77078;SDS011;66004;55.096;38.760;2023-04-24T12:59:59;16.13;;;4.13;;
77078;SDS011;66004;55.096;38.760;2023-04-24T13:02:27;12.63;;;2.85;;
77078;SDS011;66004;55.096;38.760;2023-04-24T13:04:56;16.52;;;3.35;;
77078;SDS011;66004;55.096;38.760;2023-04-24T13:07:23;8.95;;;2.45;;
77078;SDS011;66004;55.096;38.760;2023-04-24T13:10:08;12.30;;;2.65;;
77078;SDS011;66004;55.096;38.760;2023-04-24T13:12:34;9.15;;;3.00;;
77078;SDS011;66004;55.096;38.760;2023-04-24T13:15:00;39.75;;;6.95;;
77078;SDS011;66004;55.096;38.760;2023-04-24T13:17:25;9.80;;;4.32;;
77078;SDS011;66004;55.096;38.760;2023-04-24T13:19:54;6.60;;;2.88;;
77078;SDS011;66004;55.096;38.760;2023-04-24T13:22:20;23.23;;;4.28;;
77078;SDS011;66004;55.096;38.760;2023-04-24T13:24:46;9.82;;;3.25;;
77078;SDS011;66004;55.096;38.760;2023-04-24T13:27:13;18.17;;;3.72;;
77078;SDS011;66004;55.096;38.760;2023-04-24T13:29:40;10.38;;;3.25;;
77078;SDS011;66004;55.096;38.760;2023-04-24T13:32:06;20.65;;;3.47;;
77078;SDS011;66004;55.096;38.760;2023-04-24T13:34:31;8.63;;;2.80;;
77078;SDS011;66004;55.096;38.760;2023-04-24T13:36:57;24.58;;;4.10;;
77078;SDS011;66004;55.096;38.760;2023-04-24T13:39:24;16.02;;;3.33;;
77078;SDS011;66004;55.096;38.760;2023-04-24T13:41:50;14.73;;;3.45;;
77078;SDS011;66004;55.096;38.760;2023-04-24T13:44:16;8.40;;;3.45;;
77078;SDS011;66004;55.096;38.760;2023-04-24T13:46:43;9.48;;;3.30;;
77078;SDS011;66004;55.096;38.760;2023-04-24T13:49:11;13.02;;;3.45;;
77078;SDS011;66004;55.096;38.760;2023-04-24T13:51:40;6.03;;;2.70;;
77078;SDS011;66004;55.096;38.760;2023-04-24T13:54:06;33.35;;;3.60;;
77078;SDS011;66004;55.096;38.760;2023-04-24T13:56:32;15.68;;;3.33;;
77078;SDS011;66004;55.096;38.760;2023-04-24T13:58:58;11.43;;;3.20;;
77078;SDS011;66004;55.096;38.760;2023-04-24T14:01:23;8.60;;;2.85;;
77078;SDS011;66004;55.096;38.760;2023-04-24T14:03:53;7.95;;;3.10;;
77078;SDS011;66004;55.096;38.760;2023-04-24T14:06:19;19.27;;;3.25;;
77078;SDS011;66004;55.096;38.760;2023-04-24T14:08:45;17.73;;;3.03;;
77078;SDS011;66004;55.096;38.760;2023-04-24T14:11:11;9.80;;;4.70;;
77078;SDS011;66004;55.096;38.760;2023-04-24T14:13:37;19.63;;;4.20;;
77078;SDS011;66004;55.096;38.760;2023-04-24T14:16:03;22.95;;;3.17;;
77078;SDS011;66004;55.096;38.760;2023-04-24T14:18:29;18.13;;;3.40;;
77078;SDS011;66004;55.096;38.760;2023-04-24T14:20:55;18.02;;;2.88;;
77078;SDS011;66004;55.096;38.760;2023-04-24T14:23:21;8.32;;;2.38;;
77078;SDS011;66004;55.096;38.760;2023-04-24T14:25:46;20.73;;;3.85;;
77078;SDS011;66004;55.096;38.760;2023-04-24T14:28:15;7.22;;;2.40;;
77078;SDS011;66004;55.096;38.760;2023-04-24T14:30:42;17.77;;;4.72;;
77078;SDS011;66004;55.096;38.760;2023-04-24T14:33:07;24.05;;;3.47;;
77078;SDS011;66004;55.096;38.760;2023-04-24T14:35:33;10.98;;;2.72;;
77078;SDS011;66004;55.096;38.760;2023-04-24T14:38:00;8.50;;;2.63;;
77078;SDS011;66004;55.096;38.760;2023-04-24T14:40:25;10.05;;;2.60;;
77078;SDS011;66004;55.096;38.760;2023-04-24T14:42:51;12.05;;;2.95;;
77078;SDS011;66004;55.096;38.760;2023-04-24T14:45:17;17.52;;;3.42;;
77078;SDS011;66004;55.096;38.760;2023-04-24T14:47:43;25.40;;;3.10;;
77078;SDS011;66004;55.096;38.760;2023-04-24T15:10:39;10.43;;;3.60;;
77078;SDS011;66004;55.096;38.760;2023-04-24T15:13:05;7.80;;;2.97;;
77078;SDS011;66004;55.096;38.760;2023-04-24T15:15:31;9.85;;;3.20;;
77078;SDS011;66004;55.096;38.760;2023-04-24T15:17:56;14.57;;;3.55;;
77078;SDS011;66004;55.096;38.760;2023-04-24T15:20:22;11.02;;;3.53;;
77078;SDS011;66004;55.096;38.760;2023-04-24T15:22:47;14.00;;;5.80;;
77078;SDS011;66004;55.096;38.760;2023-04-24T15:25:13;22.75;;;4.28;;
77078;SDS011;66004;55.096;38.760;2023-04-24T15:27:39;23.90;;;3.90;;
77078;SDS011;66004;55.096;38.760;2023-04-24T15:30:08;19.83;;;3.88;;
77078;SDS011;66004;55.096;38.760;2023-04-24T15:32:35;16.15;;;3.88;;
77078;SDS011;66004;55.096;38.760;2023-04-24T15:35:01;28.92;;;4.75;;
77078;SDS011;66004;55.096;38.760;2023-04-24T15:37:26;10.90;;;3.65;;
77078;SDS011;66004;55.096;38.760;2023-04-24T15:39:52;18.27;;;4.55;;
77078;SDS011;66004;55.096;38.760;2023-04-24T15:42:18;13.15;;;3.97;;
77078;SDS011;66004;55.096;38.760;2023-04-24T15:44:43;14.20;;;4.97;;
77078;SDS011;66004;55.096;38.760;2023-04-24T15:47:09;16.90;;;4.00;;
77078;SDS011;66004;55.096;38.760;2023-04-24T15:49:34;13.70;;;4.07;;
77078;SDS011;66004;55.096;38.760;2023-04-24T15:52:00;16.67;;;4.97;;
77078;SDS011;66004;55.096;38.760;2023-04-24T15:54:25;14.68;;;5.15;;
77078;SDS011;66004;55.096;38.760;2023-04-24T15:56:52;27.25;;;6.93;;
77078;SDS011;66004;55.096;38.760;2023-04-24T15:59:17;15.35;;;4.47;;
77078;SDS011;66004;55.096;38.760;2023-04-24T16:01:43;12.15;;;4.10;;
77078;SDS011;66004;55.096;38.760;2023-04-24T16:04:09;18.25;;;4.60;;
77078;SDS011;66004;55.096;38.760;2023-04-24T16:06:34;14.60;;;4.10;;
77078;SDS011;66004;55.096;38.760;2023-04-24T16:08:59;38.63;;;5.22;;
77078;SDS011;66004;55.096;38.760;2023-04-24T16:11:25;25.08;;;4.50;;
77078;SDS011;66004;55.096;38.760;2023-04-24T16:13:50;14.95;;;3.70;;
77078;SDS011;66004;55.096;38.760;2023-04-24T16:16:16;16.80;;;3.95;;
77078;SDS011;66004;55.096;38.760;2023-04-24T16:18:42;17.90;;;4.47;;
77078;SDS011;66004;55.096;38.760;2023-04-24T16:21:07;25.55;;;5.45;;
77078;SDS011;66004;55.096;38.760;2023-04-24T16:23:33;11.68;;;4.07;;
77078;SDS011;66004;55.096;38.760;2023-04-24T16:25:59;10.25;;;3.78;;
77078;SDS011;66004;55.096;38.760;2023-04-24T16:28:25;13.52;;;4.38;;
77078;SDS011;66004;55.096;38.760;2023-04-24T16:30:51;14.55;;;4.38;;
77078;SDS011;66004;55.096;38.760;2023-04-24T16:33:17;13.10;;;4.93;;
77078;SDS011;66004;55.096;38.760;2023-04-24T16:35:43;12.25;;;3.97;;
77078;SDS011;66004;55.096;38.760;2023-04-24T16:38:10;9.00;;;4.32;;
77078;SDS011;66004;55.096;38.760;2023-04-24T16:40:36;17.55;;;4.13;;